Data for 02/20/2013

Time Sea-Level Adjusted Pressure Absolute Pressure Temperature Relative Humidity Dew Point   
(mb) (inHg) (mb) (inHg) (C) (F) (%) (C) (F)
00:05 1008 29.77 837 24.72 -4 24.8 65 -9.7 14.6
00:10 1008 29.77 837 24.72 -4 24.7 65 -9.7 14.5
00:15 1008 29.77 837 24.72 -4 24.7 65 -9.7 14.5
00:20 1008 29.77 837 24.72 -4 24.8 64 -9.8 14.4
00:25 1008 29.77 837 24.72 -4 24.8 65 -9.7 14.5
00:30 1008 29.77 837 24.72 -4.1 24.6 65 -9.8 14.4
00:35 1008 29.77 837 24.72 -4 24.7 65 -9.7 14.6
00:40 1008 29.77 837 24.72 -3.9 24.9 64 -9.7 14.6
00:45 1008 29.77 837 24.72 -3.8 25.1 64 -9.7 14.5
00:50 1008 29.77 837 24.72 -3.9 25.1 64 -9.7 14.5
00:55 1008 29.77 837 24.72 -4 24.8 65 -9.7 14.5
01:00 1008 29.77 837 24.72 -4.1 24.6 65 -9.8 14.4
01:05 1008 29.77 837 24.72 -4.2 24.4 65 -9.8 14.3
01:10 1008 29.77 837 24.72 -4.3 24.2 65 -9.9 14.2
01:15 1008 29.77 837 24.72 -4.2 24.4 65 -9.8 14.3
01:20 1008 29.77 837 24.72 -4.2 24.4 65 -9.8 14.4
01:25 1008 29.77 837 24.72 -4.2 24.4 66 -9.8 14.4
01:30 1008 29.77 837 24.72 -4.1 24.6 65 -9.7 14.5
01:35 1008 29.77 837 24.72 -4.2 24.5 65 -9.7 14.5
01:40 1008 29.77 837 24.72 -4.2 24.4 65 -9.8 14.3
01:45 1008 29.77 837 24.72 -4.2 24.4 65 -9.9 14.2
01:50 1008 29.77 837 24.72 -4.2 24.4 65 -9.9 14.2
01:55 1008 29.77 837 24.72 -4.2 24.4 65 -9.9 14.2
02:00 1008 29.77 837 24.72 -4.2 24.4 65 -9.9 14.2
02:05 1008 29.77 837 24.72 -4.1 24.5 65 -9.9 14.3
02:10 1008 29.77 837 24.72 -4.1 24.6 64 -9.9 14.2
02:15 1008 29.77 837 24.72 -4.2 24.4 65 -9.8 14.3
02:20 1008 29.77 837 24.72 -4.1 24.6 64 -9.9 14.2
02:25 1008 29.77 837 24.72 -4 24.8 64 -9.8 14.3
02:30 1008 29.77 837 24.72 -4.2 24.5 65 -9.8 14.4
02:35 1008 29.77 837 24.72 -4.3 24.2 66 -9.8 14.3
02:40 1008 29.77 837 24.72 -4.5 23.8 67 -9.8 14.4
02:45 1008 29.77 837 24.72 -4.8 23.4 67 -9.9 14.2
02:50 1008 29.77 837 24.72 -5 23 68 -10 14
02:55 1008 29.77 837 24.72 -4.9 23.2 68 -10 14
03:00 1008 29.77 837 24.72 -4.9 23.1 67 -10.1 13.9
03:05 1008 29.77 837 24.72 -5 23.1 68 -10 13.9
03:10 1008 29.77 837 24.72 -5.1 22.8 68 -10.1 13.9
03:15 1008 29.77 837 24.72 -5.1 22.8 68 -10.2 13.6
03:20 1008 29.77 837 24.72 -4.9 23.1 67 -10.1 13.9
03:25 1008 29.77 837 24.72 -4.9 23.2 67 -10.1 13.9
03:30 1008 29.77 837 24.72 -5 23 68 -10 14
03:35 1008 29.77 837 24.72 -5 23 68 -10.1 13.9
03:40 1008 29.77 837 24.72 -4.8 23.4 67 -10 14
03:45 1008 29.77 837 24.72 -4.4 24 65 -10.1 13.8
03:50 1008 29.77 837 24.72 -4.4 24 65 -10 14
03:55 1008 29.77 837 24.72 -4.6 23.7 66 -10 14.1
04:00 1008 29.77 837 24.72 -4.9 23.2 67 -10.1 13.8
04:05 1008 29.77 837 24.72 -5.1 22.8 68 -10.1 13.9
04:10 1008 29.77 837 24.72 -5.1 22.8 68 -10 13.9
04:15 1008 29.77 837 24.72 -4.9 23.1 67 -10.1 13.8
04:20 1008 29.77 837 24.72 -5 23 67 -10.2 13.6
04:25 1008 29.77 837 24.72 -4.9 23.2 66 -10.2 13.7
04:30 1008 29.77 837 24.72 -5 23.1 67 -10.2 13.6
04:35 1008 29.77 837 24.72 -5.1 22.7 68 -10.2 13.7
04:40 1008 29.77 837 24.72 -5.6 22 69 -10.5 13.2
04:45 1008 29.77 837 24.72 -5.9 21.4 69 -10.6 12.9
04:50 1008 29.77 837 24.72 -6.2 20.8 72 -10.4 13.3
04:55 1008 29.77 837 24.72 -6 21.1 71 -10.5 13.1
05:00 1008 29.77 837 24.72 -6 21.2 70 -10.6 12.9
05:05 1008 29.77 837 24.72 -5.7 21.8 69 -10.6 13
05:10 1008 29.77 837 24.72 -5.4 22.2 68 -10.4 13.3
05:15 1008 29.77 837 24.72 -5.8 21.6 70 -10.5 13.1
05:20 1008 29.77 837 24.72 -6.2 20.8 72 -10.5 13.1
05:25 1008 29.77 837 24.72 -6.5 20.2 72 -10.7 12.7
05:30 1008 29.77 838 24.75 -6.6 20.2 72 -10.8 12.6
05:35 1008 29.77 838 24.75 -6.8 19.8 74 -10.6 12.9
05:40 1008 29.77 838 24.75 -6.7 20 74 -10.7 12.8
05:45 1008 29.77 838 24.75 -6.5 20.3 73 -10.6 13
05:50 1008 29.77 838 24.75 -6.5 20.2 73 -10.6 12.9
05:55 1008 29.77 838 24.75 -6.4 20.4 72 -10.6 12.9
06:00 1009 29.8 838 24.75 -6.2 20.8 71 -10.6 12.9
06:05 1009 29.8 838 24.75 -6.4 20.6 71 -10.8 12.6
06:10 1009 29.8 838 24.75 -6.4 20.5 71 -10.8 12.6
06:15 1009 29.8 838 24.75 -6.5 20.3 71 -10.9 12.5
06:20 1009 29.8 838 24.75 -6.7 20 73 -10.7 12.7
06:25 1009 29.8 838 24.75 -6.8 19.7 74 -10.7 12.7
06:30 1009 29.8 838 24.75 -6.9 19.6 74 -10.7 12.7
06:35 1009 29.8 838 24.75 -6.9 19.5 74 -10.7 12.7
06:40 1009 29.8 838 24.75 -7 19.4 74 -10.9 12.4
06:45 1009 29.8 838 24.75 -7 19.5 74 -10.9 12.4
06:50 1009 29.8 838 24.75 -6.9 19.7 73 -10.9 12.3
06:55 1009 29.8 838 24.75 -7.1 19.2 75 -10.9 12.4
07:00 1009 29.8 838 24.75 -7.1 19.2 75 -10.8 12.6
07:05 1009 29.8 838 24.75 -6.7 20 73 -10.7 12.7
07:10 1009 29.8 838 24.75 -6.4 20.4 72 -10.6 12.9
07:15 1009 29.8 838 24.75 -6.2 20.9 72 -10.5 13.1
07:20 1009 29.8 838 24.75 -5.9 21.4 71 -10.4 13.3
07:25 1009 29.8 838 24.75 -5.5 22.1 69 -10.3 13.4
07:30 1009 29.8 838 24.75 -5.4 22.4 69 -10.2 13.7
07:35 1009 29.8 838 24.75 -5.6 21.9 70 -10.3 13.4
07:40 1009 29.8 838 24.75 -5.7 21.7 70 -10.4 13.3
07:45 1009 29.8 838 24.75 -5.9 21.4 71 -10.4 13.2
07:50 1009 29.8 838 24.75 -6 21.1 71 -10.5 13.1
07:55 1009 29.8 838 24.75 -6.4 20.5 71 -10.8 12.6
08:00 1009 29.8 838 24.75 -6.4 20.5 71 -10.9 12.4
08:05 1009 29.8 838 24.75 -6.3 20.6 72 -10.6 12.9
08:10 1009 29.8 838 24.75 -6.4 20.5 72 -10.6 12.9
08:15 1009 29.8 839 24.78 -6.4 20.5 73 -10.5 13
08:20 1009 29.8 839 24.78 -6.4 20.4 73 -10.6 13
08:25 1009 29.8 839 24.78 -6.4 20.4 73 -10.5 13
08:30 1009 29.8 839 24.78 -6.4 20.4 73 -10.5 13.1
08:35 1009 29.8 839 24.78 -6.4 20.4 74 -10.4 13.3
08:40 1009 29.8 839 24.78 -6.4 20.4 73 -10.5 13.1
08:45 1009 29.8 839 24.78 -6.4 20.5 73 -10.4 13.3
08:50 1009 29.8 839 24.78 -6.4 20.6 73 -10.4 13.3
08:55 1010 29.83 839 24.78 -6.3 20.6 73 -10.5 13.2
09:00 1010 29.83 839 24.78 -6.3 20.6 73 -10.4 13.2
09:05 1010 29.83 839 24.78 -6.4 20.6 74 -10.3 13.5
09:10 1010 29.83 839 24.78 -6.3 20.6 74 -10.2 13.6
09:15 1010 29.83 839 24.78 -6.2 20.9 74 -10.1 13.8
09:20 1010 29.83 839 24.78 -6 21.2 73 -10 13.9
09:25 1010 29.83 839 24.78 -5.8 21.5 73 -10 14.1
09:30 1010 29.83 839 24.78 -5.6 22 71 -9.9 14.1
09:35 1010 29.83 839 24.78 -5.4 22.2 72 -9.8 14.4
09:40 1010 29.83 839 24.78 -5.2 22.6 71 -9.8 14.4
09:45 1010 29.83 839 24.78 -4.9 23.1 69 -9.7 14.5
09:50 1010 29.83 839 24.78 -4.6 23.7 69 -9.5 15
09:55 1010 29.83 839 24.78 -4.1 24.7 67 -9.3 15.3
10:00 1010 29.83 839 24.78 -3.7 25.4 66 -9.1 15.7
10:05 1010 29.83 839 24.78 -3.6 25.6 68 -8.7 16.3
10:10 1010 29.83 839 24.78 -3.7 25.4 66 -9.1 15.6
10:15 1010 29.83 839 24.78 -3.8 25.2 66 -9.3 15.2
10:20 1010 29.83 839 24.78 -3.5 25.6 66 -9 15.8
10:25 1010 29.83 839 24.78 -3.2 26.2 66 -8.7 16.3
10:30 1010 29.83 839 24.78 -3 26.5 66 -8.6 16.6
10:35 1010 29.83 839 24.78 -3 26.6 65 -8.7 16.3
10:40 1010 29.83 839 24.78 -3.1 26.5 64 -8.9 15.9
10:45 1010 29.83 839 24.78 -3 26.6 64 -8.9 15.9
10:50 1010 29.83 839 24.78 -3 26.6 66 -8.6 16.6
10:55 1010 29.83 839 24.78 -3.2 26.3 67 -8.4 16.9
11:00 1010 29.83 839 24.78 -3.2 26.2 67 -8.5 16.7
11:05 1010 29.83 839 24.78 -3 26.6 68 -8.2 17.3
11:10 1010 29.83 839 24.78 -2.9 26.7 70 -7.7 18.2
11:15 1010 29.83 839 24.78 -2.9 26.8 70 -7.5 18.5
11:20 1010 29.83 839 24.78 -3 26.6 70 -7.7 18.2
11:25 1010 29.83 839 24.78 -3.2 26.3 73 -7.4 18.7
11:30 1010 29.83 839 24.78 -3.4 26 73 -7.5 18.5
11:35 1010 29.83 839 24.78 -3.4 25.9 74 -7.3 18.8
11:40 1010 29.83 839 24.78 -3.3 26 75 -7.2 19.1
11:45 1010 29.83 839 24.78 -3.4 25.8 77 -7 19.4
11:50 1010 29.83 839 24.78 -3.3 26 77 -6.9 19.6
11:55 1010 29.83 839 24.78 -3.4 25.8 77 -6.9 19.6
12:00 1010 29.83 839 24.78 -3.4 25.9 79 -6.6 20.2
12:05 1010 29.83 839 24.78 -3 26.5 75 -6.8 19.7
12:10 1010 29.83 839 24.78 -2.9 26.9 76 -6.6 20.2
12:15 1010 29.83 839 24.78 -2.4 27.7 73 -6.6 20.1
12:20 1010 29.83 839 24.78 -2.5 27.6 75 -6.4 20.5
12:25 1010 29.83 839 24.78 -2.7 27.1 72 -7.1 19.2
12:30 1010 29.83 839 24.78 -2.9 26.8 74 -6.9 19.5
12:35 1010 29.83 839 24.78 -2.9 26.8 75 -6.7 19.9
12:40 1010 29.83 839 24.78 -2.9 26.7 76 -6.6 20
12:45 1010 29.83 839 24.78 -3 26.7 78 -6.3 20.7
12:50 1010 29.83 839 24.78 -3.2 26.3 80 -6.2 20.9
12:55 1010 29.83 839 24.78 -3.3 26 82 -6 21.1
13:00 1010 29.83 839 24.78 -3.2 26.2 78 -6.5 20.3
13:05 1010 29.83 839 24.78 -3.4 25.9 83 -5.9 21.4
13:10 1010 29.83 839 24.78 -3.5 25.8 80 -6.5 20.3
13:15 1010 29.83 839 24.78 -3.5 25.7 81 -6.3 20.7
13:20 1010 29.83 839 24.78 -3.3 26.1 80 -6.2 20.9
13:25 1010 29.83 839 24.78 -3.2 26.2 81 -6 21.2
13:30 1010 29.83 839 24.78 -3 26.6 83 -5.5 22.2
13:35 1010 29.83 839 24.78 -2.8 27 82 -5.5 22.1
13:40 1010 29.83 839 24.78 -3 26.6 80 -5.9 21.4
13:45 1010 29.83 839 24.78 -3.6 25.6 83 -6 21.2
13:50 1010 29.83 839 24.78 -3.5 25.7 84 -5.8 21.5
13:55 1010 29.83 839 24.78 -3.2 26.2 85 -5.4 22.3
14:00 1010 29.83 839 24.78 -2.9 26.7 86 -5 23
14:05 1010 29.83 839 24.78 -2.8 27 85 -5 22.9
14:10 1010 29.83 839 24.78 -2.6 27.4 86 -4.7 23.6
14:15 1010 29.83 839 24.78 -1.9 28.6 80 -5 23.1
14:20 1010 29.83 839 24.78 -1.9 28.5 79 -5.1 22.8
14:25 1010 29.83 839 24.78 -2.6 27.3 85 -4.8 23.3
14:30 1010 29.83 839 24.78 -2.7 27.2 82 -5.3 22.4
14:35 1010 29.83 839 24.78 -3 26.6 85 -5.2 22.6
14:40 1010 29.83 839 24.78 -2.7 27.1 84 -5 22.9
14:45 1009 29.8 839 24.78 -2.6 27.3 85 -4.7 23.5
14:50 1009 29.8 839 24.78 -2.6 27.4 84 -4.9 23.2
14:55 1009 29.8 839 24.78 -2.8 27 82 -5.5 22.1
15:00 1009 29.8 839 24.78 -2.6 27.4 81 -5.4 22.3
15:05 1009 29.8 839 24.78 -2.5 27.6 84 -4.9 23.2
15:10 1009 29.8 839 24.78 -2.4 27.8 80 -5.4 22.3
15:15 1009 29.8 839 24.78 -2.1 28.2 81 -4.9 23.3
15:20 1009 29.8 839 24.78 -2.3 27.9 82 -5 22.9
15:25 1009 29.8 839 24.78 -2.1 28.3 79 -5.2 22.6
15:30 1009 29.8 839 24.78 -2.5 27.4 82 -5.2 22.6
15:35 1009 29.8 839 24.78 -2.5 27.6 79 -5.7 21.8
15:40 1009 29.8 839 24.78 -2.9 26.7 84 -5.3 22.4
15:45 1009 29.8 839 24.78 -3 26.7 83 -5.4 22.3
15:50 1009 29.8 839 24.78 -2.5 27.4 82 -5.2 22.6
15:55 1009 29.8 839 24.78 -2.5 27.5 85 -4.8 23.4
16:00 1009 29.8 839 24.78 -2.4 27.6 84 -4.7 23.5
16:05 1009 29.8 839 24.78 -2.2 28.1 85 -4.4 24
16:10 1009 29.8 839 24.78 -2 28.5 83 -4.4 24.1
16:15 1009 29.8 839 24.78 -2.1 28.3 84 -4.4 24.1
16:20 1009 29.8 839 24.78 -2 28.4 84 -4.4 24.1
16:25 1009 29.8 839 24.78 -1.9 28.6 82 -4.6 23.7
16:30 1009 29.8 839 24.78 -2.1 28.3 84 -4.4 24.1
16:35 1009 29.8 839 24.78 -2 28.3 84 -4.5 24
16:40 1009 29.8 839 24.78 -2.1 28.3 85 -4.3 24.2
16:45 1009 29.8 839 24.78 -2.3 27.9 84 -4.6 23.7
16:50 1009 29.8 839 24.78 -2.7 27.2 87 -4.6 23.7
16:55 1009 29.8 839 24.78 -2.4 27.6 86 -4.4 24
17:00 1009 29.8 839 24.78 -2.2 28.1 84 -4.5 23.9
17:05 1009 29.8 839 24.78 -2.1 28.3 84 -4.5 23.9
17:10 1009 29.8 839 24.78 -1.9 28.5 83 -4.4 24
17:15 1009 29.8 839 24.78 -2.1 28.3 85 -4.3 24.2
17:20 1009 29.8 839 24.78 -2.5 27.6 87 -4.4 24.1
17:25 1009 29.8 839 24.78 -2.5 27.5 88 -4.2 24.5
17:30 1009 29.8 839 24.78 -2.3 27.8 86 -4.4 24.2
17:35 1010 29.83 839 24.78 -2.3 27.8 85 -4.5 24
17:40 1010 29.83 839 24.78 -2.4 27.8 86 -4.4 24.1
17:45 1010 29.83 839 24.78 -2.4 27.7 87 -4.3 24.3
17:50 1010 29.83 839 24.78 -2.3 27.9 87 -4.2 24.5
17:55 1010 29.83 839 24.78 -2.2 28 87 -4.2 24.5
18:00 1010 29.83 839 24.78 -2.2 28 85 -4.4 24
18:05 1010 29.83 839 24.78 -2.3 27.8 86 -4.4 24.1
18:10 1010 29.83 839 24.78 -2.5 27.5 87 -4.4 24.2
18:15 1010 29.83 839 24.78 -2.6 27.2 89 -4.3 24.3
18:20 1010 29.83 839 24.78 -2.7 27.1 89 -4.2 24.4
18:25 1010 29.83 839 24.78 -2.8 27 90 -4.1 24.5
18:30 1010 29.83 839 24.78 -2.8 26.9 91 -4.1 24.5
18:35 1010 29.83 839 24.78 -2.8 27 91 -4.1 24.5
18:40 1010 29.83 839 24.78 -2.7 27.1 91 -4 24.8
18:45 1010 29.83 839 24.78 -2.6 27.3 91 -3.9 24.9
18:50 1010 29.83 839 24.78 -2.6 27.2 91 -3.9 24.9
18:55 1010 29.83 839 24.78 -2.7 27.2 91 -3.9 25
19:00 1010 29.83 839 24.78 -2.7 27.1 91 -4.1 24.7
19:05 1010 29.83 839 24.78 -2.7 27.1 91 -4 24.9
19:10 1010 29.83 839 24.78 -2.7 27.2 91 -4 24.9
19:15 1010 29.83 839 24.78 -2.7 27.1 92 -3.9 25
19:20 1010 29.83 839 24.78 -2.8 27 92 -3.9 24.9
19:25 1010 29.83 839 24.78 -2.8 26.9 92 -4 24.9
19:30 1010 29.83 839 24.78 -2.8 27 92 -3.9 25
19:35 1010 29.83 839 24.78 -2.8 27 92 -3.9 25
19:40 1010 29.83 839 24.78 -2.9 26.8 93 -3.9 25
19:45 1010 29.83 839 24.78 -2.8 26.9 93 -3.8 25.1
19:50 1010 29.83 839 24.78 -2.8 27 93 -3.8 25.2
19:55 1010 29.83 839 24.78 -2.8 27 93 -3.8 25.2
20:00 1010 29.83 840 24.81 -2.8 26.9 93 -3.8 25.2
20:05 1010 29.83 840 24.81 -2.8 26.9 94 -3.7 25.3
20:10 1010 29.83 840 24.81 -2.8 27 94 -3.7 25.3
20:15 1010 29.83 840 24.81 -2.8 27 94 -3.7 25.4
20:20 1010 29.83 840 24.81 -2.8 27 94 -3.6 25.4
20:25 1011 29.85 840 24.81 -2.8 27 94 -3.6 25.5
20:30 1011 29.85 840 24.81 -2.8 27 94 -3.7 25.4
20:35 1011 29.85 840 24.81 -2.8 26.9 93 -3.8 25.2
20:40 1011 29.85 840 24.81 -2.9 26.9 93 -3.8 25.2
20:45 1011 29.85 840 24.81 -2.9 26.8 93 -3.9 25
20:50 1011 29.85 840 24.81 -2.9 26.7 92 -4 24.7
20:55 1011 29.85 840 24.81 -3 26.7 92 -4.1 24.7
21:00 1011 29.85 840 24.81 -3 26.7 92 -4 24.7
21:05 1011 29.85 840 24.81 -3 26.6 93 -4 24.7
21:10 1011 29.85 840 24.81 -3.1 26.5 92 -4.1 24.6
21:15 1011 29.85 840 24.81 -3.1 26.4 92 -4.2 24.5
21:20 1011 29.85 840 24.81 -3.2 26.3 92 -4.3 24.3
21:25 1011 29.85 840 24.81 -3.1 26.3 92 -4.2 24.4
21:30 1011 29.85 840 24.81 -3.1 26.4 92 -4.2 24.5
21:35 1011 29.85 840 24.81 -3.1 26.4 92 -4.3 24.3
21:40 1011 29.85 840 24.81 -3.1 26.4 92 -4.3 24.2
21:45 1011 29.85 840 24.81 -3.2 26.3 92 -4.3 24.3
21:50 1011 29.85 840 24.81 -3.2 26.3 92 -4.3 24.2
21:55 1011 29.85 840 24.81 -3.3 26.1 92 -4.4 24.1
22:00 1011 29.85 840 24.81 -3.3 26.1 92 -4.4 24.2
22:05 1011 29.85 840 24.81 -3.3 26.1 92 -4.3 24.2
22:10 1011 29.85 840 24.81 -3.3 26.1 93 -4.3 24.3
22:15 1011 29.85 840 24.81 -3.3 26.1 93 -4.3 24.3
22:20 1011 29.85 840 24.81 -3.3 26.1 93 -4.3 24.3
22:25 1011 29.85 840 24.81 -3.3 26.1 93 -4.3 24.2
22:30 1011 29.85 840 24.81 -3.3 26.1 92 -4.3 24.2
22:35 1011 29.85 840 24.81 -3.2 26.2 92 -4.4 24.2
22:40 1011 29.85 840 24.81 -3.2 26.3 92 -4.3 24.3
22:45 1011 29.85 840 24.81 -3.1 26.4 92 -4.2 24.4
22:50 1011 29.85 840 24.81 -3.2 26.3 92 -4.3 24.3
22:55 1011 29.85 840 24.81 -3.2 26.2 92 -4.3 24.3
23:00 1011 29.85 840 24.81 -3.2 26.2 92 -4.3 24.2
23:05 1011 29.85 841 24.83 -3.3 26.1 92 -4.3 24.2
23:10 1011 29.85 841 24.83 -3.3 26.1 93 -4.3 24.3
23:15 1011 29.85 841 24.83 -3.3 26.1 93 -4.3 24.2
23:20 1011 29.85 841 24.83 -3.3 26.1 93 -4.3 24.3
23:25 1011 29.85 841 24.83 -3.3 26.1 93 -4.2 24.4
23:30 1011 29.85 841 24.83 -3.4 26 93 -4.3 24.3
23:35 1011 29.85 841 24.83 -3.4 25.9 93 -4.3 24.3
23:40 1012 29.88 841 24.83 -3.5 25.8 93 -4.4 24.1
23:45 1011 29.85 841 24.83 -3.5 25.6 93 -4.5 23.9
23:50 1011 29.85 841 24.83 -3.6 25.5 93 -4.5 23.9
23:55 1012 29.88 841 24.83 -3.6 25.5 94 -4.5 23.9
24:00 1012 29.88 841 24.83 -3.6 25.6 94 -4.5 24